createdAt,value
2019-04-28T00:00:45.039Z,7.06
2019-04-28T00:03:13.886Z,6.90
2019-04-28T00:05:43.819Z,6.80
2019-04-28T00:08:13.607Z,7.00
2019-04-28T00:10:43.327Z,7.01
2019-04-28T00:13:13.486Z,6.88
2019-04-28T00:15:44.467Z,7.02
2019-04-28T00:18:14.322Z,6.74
2019-04-28T00:21:00.965Z,6.89
2019-04-28T00:23:35.383Z,6.90
2019-04-28T00:26:04.792Z,6.82
2019-04-28T00:28:34.600Z,6.72
2019-04-28T00:31:04.461Z,6.59
2019-04-28T00:33:34.105Z,6.59
2019-04-28T00:36:03.858Z,6.65
2019-04-28T00:38:33.506Z,6.61
2019-04-28T00:41:03.294Z,6.61
2019-04-28T00:43:33.063Z,6.41
2019-04-28T00:46:04.496Z,6.42
2019-04-28T00:48:34.228Z,6.34
2019-04-28T00:51:03.917Z,6.44
2019-04-28T00:53:33.648Z,6.43
2019-04-28T00:56:03.730Z,6.38
2019-04-28T00:58:33.434Z,6.21
2019-04-28T01:01:02.895Z,6.18
2019-04-28T01:03:32.511Z,6.28
2019-04-28T01:06:02.064Z,6.28
2019-04-28T01:08:31.832Z,6.22
2019-04-28T01:11:01.854Z,6.20
2019-04-28T01:13:32.028Z,6.12
2019-04-28T01:16:13.502Z,6.04
2019-04-28T01:18:50.291Z,6.21
2019-04-28T01:21:20.372Z,6.19
2019-04-28T01:23:50.397Z,6.27
2019-04-28T01:26:20.140Z,6.25
2019-04-28T01:28:49.913Z,6.22
2019-04-28T01:31:30.053Z,6.20
2019-04-28T01:34:02.291Z,6.24
2019-04-28T01:36:32.403Z,6.18
2019-04-28T01:39:02.023Z,6.13
2019-04-28T01:41:31.676Z,6.15
2019-04-28T01:44:01.512Z,6.08
2019-04-28T01:46:31.218Z,6.13
2019-04-28T01:49:00.852Z,6.04
2019-04-28T01:51:30.629Z,6.09
2019-04-28T01:54:00.504Z,6.14
2019-04-28T01:56:30.469Z,5.89
2019-04-28T01:59:00.416Z,5.91
2019-04-28T02:01:30.334Z,6.00
2019-04-28T02:04:00.322Z,5.93
2019-04-28T02:06:30.155Z,5.80
2019-04-28T02:09:00.903Z,5.77
2019-04-28T02:11:30.584Z,5.79
2019-04-28T02:14:00.244Z,5.71
2019-04-28T02:16:29.842Z,5.73
2019-04-28T02:18:59.834Z,5.69
2019-04-28T02:21:44.125Z,5.69
2019-04-28T02:24:30.959Z,5.66
2019-04-28T02:27:01.561Z,5.73
2019-04-28T02:29:31.740Z,5.86
2019-04-28T02:32:02.361Z,6.02
2019-04-28T02:34:32.493Z,5.97
2019-04-28T02:37:02.300Z,5.76
2019-04-28T02:39:32.672Z,5.94
2019-04-28T02:42:02.406Z,5.91
2019-04-28T02:44:35.045Z,5.92
2019-04-28T02:47:03.735Z,5.86
2019-04-28T02:49:40.522Z,6.06
2019-04-28T02:52:30.896Z,6.21
2019-04-28T02:55:03.005Z,6.09
2019-04-28T02:57:32.663Z,5.94
2019-04-28T03:00:02.451Z,5.95
2019-04-28T03:02:32.287Z,5.80
2019-04-28T03:05:02.091Z,5.82
2019-04-28T03:07:31.832Z,5.94
2019-04-28T03:10:03.780Z,6.09
2019-04-28T03:12:33.264Z,6.17
2019-04-28T03:15:03.002Z,6.19
2019-04-28T03:17:32.777Z,6.31
2019-04-28T03:20:02.500Z,6.29
2019-04-28T03:22:33.657Z,6.40
2019-04-28T03:25:05.941Z,6.46
2019-04-28T03:27:42.768Z,6.63
2019-04-28T03:30:33.762Z,6.42
2019-04-28T03:33:10.981Z,6.48
2019-04-28T03:35:34.918Z,6.55
2019-04-28T03:38:04.610Z,6.57
2019-04-28T03:40:34.464Z,6.52
2019-04-28T03:43:04.389Z,6.43
2019-04-28T03:45:35.911Z,6.63
2019-04-28T03:48:05.716Z,6.47
2019-04-28T03:50:35.405Z,6.54
2019-04-28T03:53:05.159Z,6.62
2019-04-28T03:55:35.113Z,6.64
2019-04-28T03:58:05.361Z,6.70
2019-04-28T04:00:35.304Z,6.64
2019-04-28T04:03:05.188Z,6.75
2019-04-28T04:05:35.882Z,6.60
2019-04-28T04:08:06.103Z,6.80
2019-04-28T04:10:40.163Z,6.93
2019-04-28T04:13:11.144Z,7.02
2019-04-28T04:16:01.611Z,7.06
2019-04-28T04:18:41.479Z,7.05
2019-04-28T04:21:12.279Z,6.94
2019-04-28T04:23:43.222Z,7.05
2019-04-28T04:26:13.497Z,7.14
2019-04-28T04:28:43.632Z,7.09
2019-04-28T04:31:13.859Z,7.12
2019-04-28T04:33:44.204Z,7.06
2019-04-28T04:36:14.364Z,7.11
2019-04-28T04:38:46.463Z,7.17
2019-04-28T04:41:16.564Z,7.19
2019-04-28T04:43:47.888Z,7.21
2019-04-28T04:46:22.068Z,7.36
2019-04-28T04:48:51.711Z,7.34
2019-04-28T04:51:21.946Z,7.35
2019-04-28T04:53:52.333Z,7.22
2019-04-28T04:56:22.848Z,7.29
2019-04-28T04:58:53.120Z,7.27
2019-04-28T05:01:27.663Z,7.38
2019-04-28T05:03:59.671Z,7.34
2019-04-28T05:06:37.563Z,7.24
2019-04-28T05:09:11.944Z,7.16
2019-04-28T05:11:42.471Z,7.20
2019-04-28T05:14:12.818Z,7.01
2019-04-28T05:16:43.349Z,6.81
2019-04-28T05:19:13.549Z,6.88
2019-04-28T05:21:44.046Z,6.94
2019-04-28T05:24:31.198Z,7.08
2019-04-28T05:27:01.315Z,7.26
2019-04-28T05:29:31.557Z,7.28
2019-04-28T05:32:03.405Z,7.28
2019-04-28T05:34:33.144Z,7.25
2019-04-28T05:37:03.430Z,7.15
2019-04-28T05:39:33.721Z,7.12
2019-04-28T05:42:04.156Z,7.15
2019-04-28T05:44:37.404Z,7.24
2019-04-28T05:47:05.895Z,7.37
2019-04-28T05:49:43.637Z,7.48
2019-04-28T05:52:33.799Z,7.39
2019-04-28T05:55:20.326Z,7.46
2019-04-28T05:58:09.842Z,7.67
2019-04-28T06:00:41.945Z,7.64
2019-04-28T06:03:13.708Z,7.62
2019-04-28T06:05:43.935Z,7.79
2019-04-28T06:08:21.483Z,7.87
2019-04-28T06:10:51.798Z,7.92
2019-04-28T06:13:22.187Z,8.08
2019-04-28T06:15:52.569Z,8.00
2019-04-28T06:18:22.911Z,7.88
2019-04-28T06:20:53.219Z,7.95
2019-04-28T06:23:23.389Z,8.15
2019-04-28T06:25:53.640Z,7.97
2019-04-28T06:28:24.169Z,7.83
2019-04-28T06:30:54.413Z,8.17
2019-04-28T06:33:24.522Z,8.32
2019-04-28T06:35:54.762Z,8.43
2019-04-28T06:38:25.006Z,8.42
2019-04-28T06:40:55.154Z,8.40
2019-04-28T06:43:25.436Z,8.36
2019-04-28T06:45:55.866Z,8.64
2019-04-28T06:48:26.348Z,8.52
2019-04-28T06:50:56.790Z,8.56
2019-04-28T06:53:27.067Z,8.63
2019-04-28T06:55:57.455Z,8.60
2019-04-28T06:58:27.869Z,8.46
2019-04-28T07:00:58.289Z,8.34
2019-04-28T07:03:28.636Z,8.49
2019-04-28T07:05:58.911Z,8.36
2019-04-28T07:08:29.221Z,8.42
2019-04-28T07:10:59.385Z,8.57
2019-04-28T07:13:29.596Z,8.48
2019-04-28T07:15:59.704Z,8.58
2019-04-28T07:18:30.019Z,8.28
2019-04-28T07:21:01.819Z,8.50
2019-04-28T07:23:33.079Z,8.68
2019-04-28T07:26:03.442Z,8.74
2019-04-28T07:28:33.906Z,8.58
2019-04-28T07:31:04.537Z,8.59
2019-04-28T07:33:36.289Z,8.63
2019-04-28T07:36:07.294Z,8.69
2019-04-28T07:38:37.712Z,8.92
2019-04-28T07:41:08.127Z,8.79
2019-04-28T07:43:38.246Z,8.87
2019-04-28T07:46:08.421Z,9.17
2019-04-28T07:48:38.621Z,9.08
2019-04-28T07:51:08.772Z,9.09
2019-04-28T07:53:52.823Z,9.17
2019-04-28T07:56:23.403Z,9.38
2019-04-28T07:58:53.784Z,9.43
2019-04-28T08:01:24.151Z,9.47
2019-04-28T08:03:57.376Z,9.63
2019-04-28T08:06:27.095Z,9.79
2019-04-28T08:08:57.315Z,9.90
2019-04-28T08:11:27.523Z,9.78
2019-04-28T08:13:57.860Z,9.86
2019-04-28T08:16:28.173Z,9.56
2019-04-28T08:18:58.709Z,9.46
2019-04-28T08:21:28.816Z,9.54
2019-04-28T08:23:59.260Z,9.55
2019-04-28T08:26:29.646Z,9.64
2019-04-28T08:29:00.160Z,9.83
2019-04-28T08:31:50.040Z,9.70
2019-04-28T08:34:21.775Z,8.96
2019-04-28T08:36:52.007Z,9.20
2019-04-28T08:39:25.047Z,9.37
2019-04-28T08:41:54.630Z,9.32
2019-04-28T08:44:24.988Z,9.29
2019-04-28T08:46:55.535Z,9.22
2019-04-28T08:49:25.793Z,9.48
2019-04-28T08:51:55.988Z,9.61
2019-04-28T08:54:26.223Z,9.61
2019-04-28T08:56:56.593Z,9.61
2019-04-28T08:59:26.900Z,9.58
2019-04-28T09:01:57.126Z,9.81
2019-04-28T09:04:27.241Z,9.92
2019-04-28T09:06:57.462Z,9.82
2019-04-28T09:09:27.719Z,10.27
2019-04-28T09:11:58.135Z,10.22
2019-04-28T09:14:28.499Z,10.30
2019-04-28T09:16:58.774Z,10.52
2019-04-28T09:19:29.143Z,10.37
2019-04-28T09:21:59.621Z,10.57
2019-04-28T09:24:30.311Z,10.66
2019-04-28T09:27:00.939Z,10.82
2019-04-28T09:29:31.305Z,10.89
2019-04-28T09:32:01.346Z,10.93
2019-04-28T09:34:31.671Z,11.20
2019-04-28T09:37:02.093Z,11.52
2019-04-28T09:39:43.139Z,11.16
2019-04-28T09:42:31.415Z,11.45
2019-04-28T09:45:03.920Z,11.38
2019-04-28T09:47:34.080Z,11.22
2019-04-28T09:50:05.317Z,11.11
2019-04-28T09:52:35.696Z,11.29
2019-04-28T09:55:07.274Z,11.64
2019-04-28T09:57:37.814Z,11.69
2019-04-28T10:00:10.296Z,11.33
2019-04-28T10:02:40.836Z,11.49
2019-04-28T10:05:12.181Z,11.12
2019-04-28T10:07:42.389Z,11.12
2019-04-28T10:10:13.332Z,11.00
2019-04-28T10:13:37.785Z,11.15
2019-04-28T10:16:08.214Z,11.30
2019-04-28T10:18:38.408Z,11.53
2019-04-28T10:21:09.032Z,11.56
2019-04-28T10:23:39.372Z,11.66
2019-04-28T10:26:09.691Z,11.91
2019-04-28T10:28:40.268Z,11.78
2019-04-28T10:31:13.328Z,11.89
2019-04-28T10:33:43.252Z,12.00
2019-04-28T10:36:14.910Z,11.96
2019-04-28T10:38:46.590Z,11.75
2019-04-28T10:41:21.420Z,11.32
2019-04-28T10:43:51.682Z,11.46
2019-04-28T10:46:22.169Z,11.05
2019-04-28T10:48:52.482Z,10.03
2019-04-28T10:51:22.748Z,10.06
2019-04-28T10:53:53.146Z,9.95
2019-04-28T10:56:23.504Z,10.07
2019-04-28T10:58:55.208Z,10.11
2019-04-28T11:01:25.413Z,10.15
2019-04-28T11:03:57.521Z,9.67
2019-04-28T11:06:27.053Z,9.63
2019-04-28T11:09:09.012Z,9.77
2019-04-28T11:11:39.368Z,10.10
2019-04-28T11:14:09.470Z,10.17
2019-04-28T11:16:40.220Z,9.91
2019-04-28T11:19:11.437Z,10.28
2019-04-28T11:21:41.680Z,10.45
2019-04-28T11:24:12.003Z,10.64
2019-04-28T11:26:42.213Z,10.83
2019-04-28T11:29:12.559Z,10.93
2019-04-28T11:31:42.864Z,10.85
2019-04-28T11:34:20.657Z,11.20
2019-04-28T11:36:50.985Z,11.32
2019-04-28T11:39:22.775Z,11.69
2019-04-28T11:41:53.267Z,11.70
2019-04-28T11:44:23.409Z,11.62
2019-04-28T11:46:53.926Z,12.08
2019-04-28T11:49:24.083Z,12.17
2019-04-28T11:51:54.181Z,12.09
2019-04-28T11:54:24.610Z,12.08
2019-04-28T11:56:54.828Z,11.88
2019-04-28T11:59:25.551Z,11.29
2019-04-28T12:01:56.496Z,11.54
2019-04-28T12:04:27.096Z,11.55
2019-04-28T12:06:57.414Z,11.66
2019-04-28T12:09:27.484Z,11.35
2019-04-28T12:12:02.351Z,11.68
2019-04-28T12:14:34.051Z,11.37
2019-04-28T12:17:21.973Z,11.27
2019-04-28T12:19:56.713Z,11.27
2019-04-28T12:22:27.213Z,11.46
2019-04-28T12:24:57.491Z,11.03
2019-04-28T12:27:27.791Z,11.11
2019-04-28T12:29:58.108Z,10.96
2019-04-28T12:32:28.104Z,11.07
2019-04-28T12:34:58.474Z,11.25
2019-04-28T12:37:28.851Z,11.07
2019-04-28T12:39:59.213Z,11.17
2019-04-28T12:42:29.474Z,11.29
2019-04-28T12:44:59.586Z,11.10
2019-04-28T12:47:29.878Z,11.34
2019-04-28T12:50:10.452Z,11.43
2019-04-28T12:52:40.782Z,11.40
2019-04-28T12:55:11.334Z,11.72
2019-04-28T12:57:41.668Z,11.35
2019-04-28T13:00:22.647Z,11.52
2019-04-28T13:03:10.367Z,11.64
2019-04-28T13:05:42.258Z,11.31
2019-04-28T13:08:12.548Z,11.93
2019-04-28T13:10:42.920Z,12.05
2019-04-28T13:13:13.126Z,11.99
2019-04-28T13:15:43.477Z,11.78
2019-04-28T13:18:13.800Z,11.97
2019-04-28T13:20:43.922Z,11.71
2019-04-28T13:23:13.969Z,11.94
2019-04-28T13:25:44.262Z,11.83
2019-04-28T13:28:14.545Z,11.92
2019-04-28T13:30:45.156Z,11.61
2019-04-28T13:33:15.542Z,11.52
2019-04-28T13:35:45.935Z,11.78
2019-04-28T13:38:16.369Z,11.80
2019-04-28T13:40:46.780Z,11.32
2019-04-28T13:43:17.245Z,11.50
2019-04-28T13:45:47.563Z,11.41
2019-04-28T13:48:17.890Z,11.39
2019-04-28T13:50:49.115Z,11.64
2019-04-28T13:53:19.688Z,11.57
2019-04-28T13:55:51.629Z,11.81
2019-04-28T13:58:32.997Z,11.78
2019-04-28T14:01:04.706Z,11.50
2019-04-28T14:03:39.492Z,11.74
2019-04-28T14:06:28.004Z,11.87
2019-04-28T14:08:51.723Z,12.22
2019-04-28T14:11:21.962Z,12.10
2019-04-28T14:13:52.396Z,11.91
2019-04-28T14:16:22.583Z,12.23
2019-04-28T14:18:52.829Z,12.59
2019-04-28T14:21:23.225Z,12.13
2019-04-28T14:23:53.686Z,12.47
2019-04-28T14:26:23.915Z,12.42
2019-04-28T14:28:54.163Z,11.88
2019-04-28T14:31:24.601Z,11.95
2019-04-28T14:33:55.301Z,12.37
2019-04-28T14:36:25.488Z,12.48
2019-04-28T14:38:55.865Z,12.33
2019-04-28T14:41:26.199Z,12.51
2019-04-28T14:43:56.526Z,12.13
2019-04-28T14:46:27.062Z,12.20
2019-04-28T14:48:57.168Z,12.39
2019-04-28T14:51:27.508Z,12.47
2019-04-28T14:53:57.781Z,12.17
2019-04-28T14:56:27.981Z,12.38
2019-04-28T14:58:58.257Z,12.49
2019-04-28T15:01:46.450Z,12.52
2019-04-28T15:04:21.228Z,13.00
2019-04-28T15:06:59.302Z,13.03
2019-04-28T15:09:32.968Z,13.14
2019-04-28T15:12:04.746Z,13.36
2019-04-28T15:14:35.020Z,13.17
2019-04-28T15:17:05.354Z,13.04
2019-04-28T15:19:35.589Z,13.11
2019-04-28T15:22:06.022Z,13.14
2019-04-28T15:24:36.244Z,13.60
2019-04-28T15:27:06.624Z,14.01
2019-04-28T15:29:36.679Z,14.16
2019-04-28T15:32:06.993Z,13.60
2019-04-28T15:34:37.345Z,13.65
2019-04-28T15:37:09.868Z,13.47
2019-04-28T15:39:39.719Z,13.67
2019-04-28T15:42:10.001Z,13.30
2019-04-28T15:44:40.172Z,13.56
2019-04-28T15:47:10.285Z,14.26
2019-04-28T15:49:40.480Z,15.72
2019-04-28T15:52:10.721Z,16.54
2019-04-28T16:08:15.369Z,14.30
2019-04-28T16:10:45.572Z,13.95
2019-04-28T16:13:15.811Z,14.14
2019-04-28T16:15:46.096Z,14.41
2019-04-28T16:18:16.387Z,14.63
2019-04-28T16:20:46.718Z,14.43
2019-04-28T16:23:16.914Z,14.57
2019-04-28T16:25:47.186Z,14.34
2019-04-28T16:28:17.428Z,14.11
2019-04-28T16:30:47.557Z,13.92
2019-04-28T16:33:18.198Z,14.13
2019-04-28T16:35:48.604Z,13.93
2019-04-28T16:38:19.137Z,13.87
2019-04-28T16:40:57.916Z,14.00
2019-04-28T16:43:30.336Z,14.12
2019-04-28T16:46:00.474Z,13.76
2019-04-28T16:48:30.704Z,13.93
2019-04-28T16:51:01.025Z,13.78
2019-04-28T16:53:31.115Z,13.44
2019-04-28T16:56:09.263Z,13.42
2019-04-28T16:58:47.407Z,13.43
2019-04-28T17:01:19.136Z,13.76
2019-04-28T17:03:49.252Z,13.75
2019-04-28T17:06:19.787Z,13.60
2019-04-28T17:08:50.253Z,13.58
2019-04-28T17:11:20.595Z,13.40
2019-04-28T17:13:50.818Z,13.25
2019-04-28T17:16:20.934Z,13.42
2019-04-28T17:18:51.275Z,13.20
2019-04-28T17:21:21.553Z,12.81
2019-04-28T17:23:51.662Z,12.88
2019-04-28T17:26:22.214Z,12.95
2019-04-28T17:28:52.702Z,12.57
2019-04-28T17:31:23.164Z,12.32
2019-04-28T17:33:53.457Z,12.22
2019-04-28T17:36:23.727Z,12.21
2019-04-28T17:38:54.250Z,12.27
2019-04-28T17:41:25.122Z,12.41
2019-04-28T17:43:55.419Z,12.35
2019-04-28T17:46:25.817Z,12.20
2019-04-28T17:49:00.539Z,12.32
2019-04-28T17:51:31.109Z,12.09
2019-04-28T17:54:01.213Z,11.92
2019-04-28T17:56:31.514Z,11.97
2019-04-28T17:59:01.758Z,12.06
2019-04-28T18:01:49.743Z,11.99
2019-04-28T18:04:22.441Z,11.96
2019-04-28T18:07:00.463Z,12.13
2019-04-28T18:09:31.003Z,12.23
2019-04-28T18:12:00.980Z,12.28
2019-04-28T18:14:31.341Z,12.26
2019-04-28T18:17:06.534Z,12.34
2019-04-28T18:19:37.203Z,12.32
2019-04-28T18:22:07.522Z,12.19
2019-04-28T18:24:39.923Z,12.13
2019-04-28T18:27:09.573Z,12.05
2019-04-28T18:29:39.810Z,11.95
2019-04-28T18:32:17.626Z,11.71
2019-04-28T18:34:52.229Z,11.65
2019-04-28T18:37:24.722Z,11.61
2019-04-28T18:40:11.541Z,11.33
2019-04-28T18:42:49.114Z,11.31
2019-04-28T18:45:19.367Z,11.23
2019-04-28T18:47:49.648Z,11.12
2019-04-28T18:50:19.897Z,11.03
2019-04-28T18:52:50.137Z,10.81
2019-04-28T18:55:20.618Z,10.87
2019-04-28T18:57:50.874Z,10.74
2019-04-28T19:00:22.506Z,10.70
2019-04-28T19:02:52.795Z,10.58
2019-04-28T19:05:23.995Z,10.52
2019-04-28T19:08:02.320Z,10.44
2019-04-28T19:10:40.297Z,10.30
2019-04-28T19:13:11.505Z,10.11
2019-04-28T19:15:41.033Z,10.00
2019-04-28T19:18:18.557Z,9.95
2019-04-28T19:20:48.325Z,9.82
2019-04-28T19:23:18.023Z,9.70
2019-04-28T19:25:47.805Z,9.54
2019-04-28T19:28:20.329Z,9.50
2019-04-28T19:30:50.041Z,9.52
2019-04-28T19:33:19.608Z,9.34
2019-04-28T19:35:49.284Z,9.30
2019-04-28T19:38:18.860Z,9.29
2019-04-28T19:40:48.518Z,9.22
2019-04-28T19:43:18.275Z,9.09
2019-04-28T19:45:49.867Z,8.98
2019-04-28T19:48:19.508Z,8.84
2019-04-28T19:50:49.408Z,8.88
2019-04-28T19:53:19.142Z,8.70
2019-04-28T19:55:56.480Z,8.65
2019-04-28T19:58:44.028Z,8.66
2019-04-28T20:01:21.185Z,8.63
2019-04-28T20:03:50.779Z,8.60
2019-04-28T20:06:20.489Z,8.44
2019-04-28T20:08:50.085Z,8.45
2019-04-28T20:11:19.905Z,8.45
2019-04-28T20:13:49.596Z,8.38
2019-04-28T20:16:19.262Z,8.30
2019-04-28T20:18:49.152Z,8.40
2019-04-28T20:21:18.864Z,8.36
2019-04-28T20:23:48.480Z,8.45
2019-04-28T20:26:18.156Z,8.49
2019-04-28T20:28:47.871Z,8.49
2019-04-28T20:31:17.544Z,8.40
2019-04-28T20:33:47.333Z,8.38
2019-04-28T20:36:22.755Z,8.39
2019-04-28T20:38:53.941Z,8.31
2019-04-28T20:41:25.263Z,8.14
2019-04-28T20:43:56.144Z,8.08
2019-04-28T20:46:25.769Z,8.00
2019-04-28T20:48:55.596Z,7.99
2019-04-28T20:51:25.187Z,7.93
2019-04-28T20:53:54.840Z,7.86
2019-04-28T20:56:24.593Z,7.78
2019-04-28T20:58:54.316Z,7.70
2019-04-28T21:01:24.065Z,7.60
2019-04-28T21:03:53.650Z,7.55
2019-04-28T21:06:23.347Z,7.53
2019-04-28T21:08:52.917Z,7.50
2019-04-28T21:11:22.574Z,7.45
2019-04-28T21:13:52.272Z,7.44
2019-04-28T21:16:21.800Z,7.42
2019-04-28T21:18:51.333Z,7.41
2019-04-28T21:21:20.943Z,7.28
2019-04-28T21:23:50.515Z,7.28
2019-04-28T21:26:20.306Z,7.18
2019-04-28T21:28:51.148Z,7.14
2019-04-28T21:31:20.737Z,7.14
2019-04-28T21:33:50.587Z,7.10
2019-04-28T21:36:20.304Z,7.09
2019-04-28T21:38:50.689Z,7.05
2019-04-28T21:41:20.400Z,7.06
2019-04-28T21:43:51.752Z,7.07
2019-04-28T21:46:32.439Z,7.06
2019-04-28T21:49:03.756Z,6.97
2019-04-28T21:51:33.414Z,6.97
2019-04-28T21:54:03.136Z,6.95
2019-04-28T21:56:32.753Z,6.94
2019-04-28T21:59:02.520Z,6.86
2019-04-28T22:01:32.508Z,6.82
2019-04-28T22:04:02.180Z,6.85
2019-04-28T22:06:31.912Z,6.85
2019-04-28T22:09:01.498Z,6.85
2019-04-28T22:11:31.266Z,6.80
2019-04-28T22:14:00.823Z,6.77
2019-04-28T22:16:30.424Z,6.72
2019-04-28T22:19:00.466Z,6.66
2019-04-28T22:21:30.163Z,6.63
2019-04-28T22:24:10.153Z,6.60
2019-04-28T22:26:43.077Z,6.58
2019-04-28T22:29:13.650Z,6.48
2019-04-28T22:31:44.792Z,6.46
2019-04-28T22:34:15.882Z,6.48
2019-04-28T22:36:46.627Z,6.45
2019-04-28T22:39:16.912Z,6.45
2019-04-28T22:41:46.567Z,6.49
2019-04-28T22:44:16.208Z,6.44
2019-04-28T22:46:45.727Z,6.37
2019-04-28T22:49:15.512Z,6.37
2019-04-28T22:51:45.269Z,6.35
2019-04-28T22:54:19.621Z,6.29
2019-04-28T22:56:50.946Z,6.29
2019-04-28T22:59:25.104Z,6.23
2019-04-28T23:02:02.327Z,6.17
2019-04-28T23:04:33.764Z,6.17
2019-04-28T23:07:03.539Z,6.14
2019-04-28T23:09:33.545Z,6.13
2019-04-28T23:12:03.883Z,6.12
2019-04-28T23:14:33.517Z,6.07
2019-04-28T23:17:03.580Z,6.05
2019-04-28T23:19:35.020Z,6.06
2019-04-28T23:22:06.737Z,6.04
2019-04-28T23:24:36.495Z,6.05
2019-04-28T23:27:06.301Z,6.02
2019-04-28T23:29:35.996Z,5.99
2019-04-28T23:32:05.789Z,5.97
2019-04-28T23:34:35.525Z,6.03
2019-04-28T23:37:05.412Z,6.00
2019-04-28T23:39:35.186Z,5.92
2019-04-28T23:42:09.066Z,5.86
2019-04-28T23:44:38.652Z,5.83
2019-04-28T23:47:08.320Z,5.87
2019-04-28T23:49:38.038Z,5.82
2019-04-28T23:52:21.058Z,5.87
2019-04-28T23:54:52.383Z,5.85
2019-04-28T23:57:22.103Z,5.81
2019-04-28T23:59:51.737Z,5.73
